createdAt,value
2018-08-11T00:00:34.726Z,99.90
2018-08-11T00:03:03.930Z,99.90
2018-08-11T00:05:32.866Z,99.90
2018-08-11T00:08:02.473Z,99.90
2018-08-11T00:10:31.374Z,99.90
2018-08-11T00:13:00.272Z,99.90
2018-08-11T00:15:29.242Z,99.90
2018-08-11T00:17:58.141Z,99.90
2018-08-11T00:20:28.191Z,99.90
2018-08-11T00:22:57.085Z,99.90
2018-08-11T00:25:26.040Z,99.90
2018-08-11T00:27:55.588Z,99.90
2018-08-11T00:30:25.416Z,99.90
2018-08-11T00:32:54.695Z,99.90
2018-08-11T00:38:14.575Z,99.90
2018-08-11T00:40:43.523Z,99.90
2018-08-11T00:43:12.467Z,99.90
2018-08-11T00:45:41.416Z,99.90
2018-08-11T00:48:10.359Z,99.90
2018-08-11T00:50:39.659Z,99.90
2018-08-11T00:53:09.681Z,99.90
2018-08-11T00:55:38.679Z,99.90
2018-08-11T00:58:07.675Z,99.90
2018-08-11T01:00:36.691Z,99.90
2018-08-11T01:03:05.828Z,99.90
2018-08-11T01:05:34.802Z,99.90
2018-08-11T01:08:03.946Z,99.90
2018-08-11T01:10:32.905Z,99.90
2018-08-11T01:13:01.832Z,99.90
2018-08-11T01:15:30.843Z,99.90
2018-08-11T01:17:59.813Z,99.90
2018-08-11T01:20:28.796Z,99.90
2018-08-11T01:22:57.742Z,99.90
2018-08-11T01:25:26.681Z,99.90
2018-08-11T01:27:55.724Z,99.90
2018-08-11T01:30:24.679Z,99.90
2018-08-11T01:32:54.537Z,99.90
2018-08-11T01:35:23.600Z,99.90
2018-08-11T01:37:52.602Z,99.90
2018-08-11T01:40:21.584Z,99.90
2018-08-11T01:42:50.564Z,99.90
2018-08-11T01:45:19.519Z,99.90
2018-08-11T01:47:48.477Z,99.90
2018-08-11T01:50:17.607Z,99.90
2018-08-11T01:52:47.587Z,99.90
2018-08-11T01:55:17.930Z,99.90
2018-08-11T01:57:47.015Z,99.90
2018-08-11T02:00:16.923Z,99.90
2018-08-11T02:02:45.871Z,99.90
2018-08-11T02:05:15.090Z,99.90
2018-08-11T02:07:45.375Z,99.90
2018-08-11T02:10:17.208Z,99.90
2018-08-11T02:12:46.609Z,99.90
2018-08-11T02:15:15.923Z,99.90
2018-08-11T02:17:44.931Z,99.90
2018-08-11T02:20:15.662Z,99.90
2018-08-11T02:22:46.743Z,99.90
2018-08-11T02:25:15.787Z,99.90
2018-08-11T02:27:44.793Z,99.90
2018-08-11T02:30:15.621Z,99.90
2018-08-11T02:32:44.664Z,99.90
2018-08-11T02:35:14.936Z,99.90
2018-08-11T02:37:44.368Z,99.90
2018-08-11T02:40:14.663Z,99.90
2018-08-11T02:42:43.668Z,99.90
2018-08-11T02:45:15.508Z,99.90
2018-08-11T02:47:44.768Z,99.90
2018-08-11T02:50:13.961Z,99.90
2018-08-11T02:52:43.104Z,99.90
2018-08-11T02:55:12.459Z,99.90
2018-08-11T02:57:41.447Z,99.90
2018-08-11T03:00:11.827Z,99.90
2018-08-11T03:02:40.925Z,99.90
2018-08-11T03:05:10.015Z,99.90
2018-08-11T03:07:39.219Z,99.90
2018-08-11T03:10:09.713Z,99.90
2018-08-11T03:12:38.878Z,99.90
2018-08-11T03:15:09.578Z,99.90
2018-08-11T03:17:39.084Z,99.90
2018-08-11T03:20:10.323Z,99.90
2018-08-11T03:22:39.360Z,99.90
2018-08-11T03:25:09.463Z,99.90
2018-08-11T03:27:38.531Z,99.90
2018-08-11T03:30:08.040Z,99.90
2018-08-11T03:32:37.099Z,99.90
2018-08-11T03:35:06.643Z,99.90
2018-08-11T03:37:35.592Z,99.90
2018-08-11T03:40:05.504Z,99.90
2018-08-11T03:42:34.558Z,99.90
2018-08-11T03:45:03.567Z,99.90
2018-08-11T03:47:32.529Z,99.90
2018-08-11T03:50:01.469Z,99.90
2018-08-11T03:52:30.486Z,99.90
2018-08-11T03:54:59.441Z,99.90
2018-08-11T03:57:28.427Z,99.90
2018-08-11T03:59:57.396Z,99.90
2018-08-11T04:02:26.399Z,99.90
2018-08-11T04:04:55.397Z,99.90
2018-08-11T04:07:24.384Z,99.90
2018-08-11T04:09:53.428Z,99.90
2018-08-11T04:12:22.425Z,99.90
2018-08-11T04:14:51.395Z,99.90
2018-08-11T04:17:24.543Z,99.90
2018-08-11T04:19:53.511Z,99.90
2018-08-11T04:22:22.475Z,99.90
2018-08-11T04:24:51.440Z,99.90
2018-08-11T04:27:20.368Z,99.90
2018-08-11T04:29:49.317Z,99.90
2018-08-11T04:32:18.295Z,99.90
2018-08-11T04:34:47.316Z,99.90
2018-08-11T04:37:16.283Z,99.90
2018-08-11T04:39:45.260Z,99.90
2018-08-11T04:42:14.203Z,99.90
2018-08-11T04:44:43.135Z,99.90
2018-08-11T04:47:12.131Z,99.90
2018-08-11T04:49:41.108Z,99.90
2018-08-11T04:52:10.071Z,99.90
2018-08-11T04:54:39.123Z,99.90
2018-08-11T04:57:08.133Z,99.90
2018-08-11T04:59:37.173Z,99.90
2018-08-11T05:02:06.168Z,99.90
2018-08-11T05:04:35.123Z,99.90
2018-08-11T05:07:04.088Z,99.90
2018-08-11T05:09:33.088Z,99.90
2018-08-11T05:12:02.166Z,99.90
2018-08-11T05:14:31.106Z,99.90
2018-08-11T05:17:00.077Z,99.90
2018-08-11T05:19:29.078Z,99.90
2018-08-11T05:21:58.052Z,99.90
2018-08-11T05:24:27.009Z,99.90
2018-08-11T05:26:56.009Z,99.90
2018-08-11T05:29:25.067Z,99.90
2018-08-11T05:31:54.007Z,99.90
2018-08-11T05:34:23.018Z,99.90
2018-08-11T05:36:52.049Z,99.90
2018-08-11T05:39:21.083Z,99.90
2018-08-11T05:41:50.026Z,99.90
2018-08-11T05:44:18.968Z,99.90
2018-08-11T05:46:47.910Z,99.90
2018-08-11T05:49:16.887Z,99.90
2018-08-11T05:51:45.893Z,99.90
2018-08-11T05:54:14.911Z,99.90
2018-08-11T05:56:44.026Z,99.90
2018-08-11T05:59:13.025Z,99.90
2018-08-11T06:01:41.983Z,99.90
2018-08-11T06:04:14.795Z,99.90
2018-08-11T06:06:43.752Z,99.90
2018-08-11T06:09:12.679Z,99.90
2018-08-11T06:11:41.650Z,99.90
2018-08-11T06:14:10.688Z,99.90
2018-08-11T06:16:39.670Z,99.90
2018-08-11T06:19:08.679Z,99.90
2018-08-11T06:21:37.662Z,99.90
2018-08-11T06:24:06.653Z,99.90
2018-08-11T06:26:35.632Z,99.90
2018-08-11T06:29:04.600Z,99.90
2018-08-11T06:31:33.606Z,99.90
2018-08-11T06:34:02.583Z,99.90
2018-08-11T06:36:31.575Z,99.90
2018-08-11T06:39:00.525Z,99.90
2018-08-11T06:41:29.491Z,99.90
2018-08-11T06:43:58.483Z,99.90
2018-08-11T06:46:27.423Z,99.90
2018-08-11T06:48:56.371Z,99.90
2018-08-11T06:51:25.321Z,99.90
2018-08-11T06:53:54.256Z,99.90
2018-08-11T06:56:23.346Z,99.90
2018-08-11T06:58:52.351Z,99.90
2018-08-11T07:01:21.344Z,99.90
2018-08-11T07:03:50.404Z,99.90
2018-08-11T07:06:19.451Z,99.90
2018-08-11T07:08:48.418Z,99.90
2018-08-11T07:11:17.456Z,99.90
2018-08-11T07:13:46.429Z,99.90
2018-08-11T07:16:15.401Z,99.90
2018-08-11T07:18:45.048Z,99.90
2018-08-11T07:21:14.065Z,99.90
2018-08-11T07:23:43.107Z,99.90
2018-08-11T07:26:12.193Z,99.90
2018-08-11T07:28:42.224Z,99.90
2018-08-11T07:31:11.923Z,99.90
2018-08-11T07:33:45.755Z,99.90
2018-08-11T07:36:17.737Z,99.90
2018-08-11T07:38:46.814Z,99.90
2018-08-11T07:41:16.487Z,99.90
2018-08-11T07:43:45.506Z,99.90
2018-08-11T07:46:15.804Z,99.90
2018-08-11T07:48:44.892Z,99.90
2018-08-11T07:51:14.199Z,99.90
2018-08-11T07:53:43.466Z,99.90
2018-08-11T07:56:12.459Z,99.90
2018-08-11T07:58:41.498Z,99.90
2018-08-11T08:01:10.549Z,98.60
2018-08-11T08:03:39.616Z,99.90
2018-08-11T08:06:08.668Z,99.40
2018-08-11T08:08:37.668Z,97.10
2018-08-11T08:11:06.832Z,96.60
2018-08-11T08:13:35.853Z,95.70
2018-08-11T08:16:04.896Z,92.10
2018-08-11T08:18:33.936Z,90.40
2018-08-11T08:21:02.920Z,95.40
2018-08-11T08:23:31.918Z,96.40
2018-08-11T08:26:00.993Z,94.40
2018-08-11T08:28:29.972Z,94.80
2018-08-11T08:30:58.957Z,93.30
2018-08-11T08:33:27.903Z,91.00
2018-08-11T08:35:56.892Z,89.90
2018-08-11T08:38:25.845Z,91.70
2018-08-11T08:40:54.827Z,97.70
2018-08-11T08:43:23.819Z,99.90
2018-08-11T08:45:52.769Z,94.60
2018-08-11T08:48:21.749Z,93.60
2018-08-11T09:19:39.378Z,99.10
2018-08-11T09:22:08.346Z,90.70
2018-08-11T09:24:37.273Z,90.70
2018-08-11T09:27:06.187Z,83.10
2018-08-11T09:29:35.174Z,87.50
2018-08-11T09:32:04.162Z,82.40
2018-08-11T09:34:33.101Z,88.50
2018-08-11T09:37:02.021Z,86.50
2018-08-11T09:39:30.909Z,91.00
2018-08-11T09:41:59.866Z,90.70
2018-08-11T09:44:28.838Z,90.70
2018-08-11T09:46:57.783Z,90.50
2018-08-11T09:49:26.696Z,89.60
2018-08-11T09:51:55.582Z,90.00
2018-08-11T09:54:24.504Z,88.50
2018-08-11T09:56:53.476Z,87.80
2018-08-11T09:59:22.438Z,90.80
2018-08-11T10:01:57.314Z,86.70
2018-08-11T10:04:26.318Z,92.00
2018-08-11T10:06:55.231Z,88.60
2018-08-11T10:09:24.166Z,83.60
2018-08-11T10:11:53.493Z,90.60
2018-08-11T10:14:22.492Z,91.00
2018-08-11T10:16:51.515Z,88.60
2018-08-11T10:19:21.100Z,87.00
2018-08-11T10:21:50.157Z,87.80
2018-08-11T10:24:19.518Z,83.40
2018-08-11T10:26:48.480Z,86.00
2018-08-11T10:29:17.477Z,81.20
2018-08-11T10:31:46.407Z,82.90
2018-08-11T10:34:15.792Z,84.40
2018-08-11T10:36:44.779Z,80.60
2018-08-11T10:39:14.103Z,76.60
2018-08-11T10:41:43.046Z,81.60
2018-08-11T10:44:13.562Z,85.10
2018-08-11T10:46:42.493Z,84.10
2018-08-11T10:49:12.266Z,86.10
2018-08-11T10:51:41.219Z,82.20
2018-08-11T10:54:10.151Z,88.70
2018-08-11T10:56:40.021Z,83.10
2018-08-11T10:59:08.898Z,86.00
2018-08-11T11:01:38.480Z,88.70
2018-08-11T11:04:07.374Z,77.40
2018-08-11T11:06:36.298Z,80.10
2018-08-11T11:09:08.129Z,79.70
2018-08-11T11:11:37.516Z,78.10
2018-08-11T11:14:06.509Z,75.40
2018-08-11T11:16:36.270Z,77.50
2018-08-11T11:19:05.341Z,75.30
2018-08-11T11:21:36.062Z,78.30
2018-08-11T11:24:05.245Z,78.90
2018-08-11T11:26:34.201Z,77.20
2018-08-11T11:29:03.169Z,77.10
2018-08-11T11:31:32.892Z,77.50
2018-08-11T11:34:01.890Z,78.50
2018-08-11T11:36:31.885Z,76.10
2018-08-11T11:39:00.812Z,71.00
2018-08-11T11:41:29.728Z,73.60
2018-08-11T11:43:58.625Z,75.70
2018-08-11T11:46:27.522Z,70.40
2018-08-11T11:48:56.493Z,73.10
2018-08-11T11:51:25.491Z,70.90
2018-08-11T11:53:54.483Z,71.70
2018-08-11T11:56:23.487Z,70.40
2018-08-11T11:58:52.416Z,69.30
2018-08-11T12:01:21.332Z,72.80
2018-08-11T12:03:50.243Z,72.70
2018-08-11T12:06:19.167Z,70.90
2018-08-11T12:08:48.113Z,75.10
2018-08-11T12:11:17.041Z,70.70
2018-08-11T12:13:46.026Z,72.50
2018-08-11T12:16:14.952Z,67.80
2018-08-11T12:18:43.894Z,70.60
2018-08-11T12:21:12.805Z,72.00
2018-08-11T12:23:41.778Z,70.50
2018-08-11T12:26:11.045Z,68.10
2018-08-11T12:28:39.992Z,73.50
2018-08-11T12:31:08.997Z,72.90
2018-08-11T12:33:37.977Z,71.30
2018-08-11T12:36:06.904Z,71.60
2018-08-11T12:38:35.791Z,76.90
2018-08-11T12:41:04.702Z,70.90
2018-08-11T12:43:33.674Z,68.90
2018-08-11T12:46:02.881Z,71.20
2018-08-11T12:48:31.892Z,70.50
2018-08-11T12:51:00.846Z,71.70
2018-08-11T12:53:30.215Z,74.40
2018-08-11T12:55:59.129Z,70.60
2018-08-11T12:58:28.047Z,67.90
2018-08-11T13:00:56.960Z,70.30
2018-08-11T13:03:25.881Z,69.50
2018-08-11T13:05:54.846Z,69.30
2018-08-11T13:08:23.979Z,72.40
2018-08-11T13:10:52.934Z,74.10
2018-08-11T13:13:21.890Z,70.50
2018-08-11T13:15:50.795Z,70.80
2018-08-11T13:18:19.698Z,72.50
2018-08-11T13:20:48.766Z,71.20
2018-08-11T13:23:17.608Z,73.20
2018-08-11T13:25:46.666Z,69.80
2018-08-11T13:28:15.634Z,72.00
2018-08-11T13:30:44.549Z,68.50
2018-08-11T13:33:13.473Z,67.70
2018-08-11T13:35:42.355Z,67.40
2018-08-11T13:38:11.233Z,66.30
2018-08-11T13:40:40.180Z,68.20
2018-08-11T13:43:09.089Z,71.40
2018-08-11T13:45:38.143Z,69.10
2018-08-11T13:48:07.193Z,71.00
2018-08-11T13:50:36.114Z,69.80
2018-08-11T13:53:05.088Z,66.00
2018-08-11T13:55:34.002Z,65.40
2018-08-11T13:58:02.927Z,63.60
2018-08-11T14:00:31.833Z,65.20
2018-08-11T14:03:00.783Z,65.60
2018-08-11T14:05:29.722Z,63.90
2018-08-11T14:07:58.654Z,66.70
2018-08-11T14:10:27.561Z,67.80
2018-08-11T14:12:56.455Z,67.50
2018-08-11T14:15:25.398Z,67.50
2018-08-11T14:17:54.286Z,67.70
2018-08-11T14:20:23.204Z,69.70
2018-08-11T14:22:52.109Z,69.50
2018-08-11T14:25:21.067Z,71.40
2018-08-11T14:27:50.007Z,68.60
2018-08-11T14:30:18.938Z,72.30
2018-08-11T14:32:47.956Z,72.20
2018-08-11T14:35:16.882Z,68.00
2018-08-11T14:37:45.786Z,70.50
2018-08-11T14:40:14.701Z,68.60
2018-08-11T14:42:47.841Z,72.90
2018-08-11T14:45:16.978Z,66.60
2018-08-11T14:47:45.874Z,68.20
2018-08-11T14:50:14.774Z,72.00
2018-08-11T14:52:43.763Z,70.50
2018-08-11T14:55:12.661Z,73.50
2018-08-11T14:57:41.576Z,70.20
2018-08-11T15:00:12.951Z,70.40
2018-08-11T15:02:42.209Z,71.80
2018-08-11T15:05:11.758Z,70.90
2018-08-11T15:07:42.041Z,74.30
2018-08-11T15:10:11.027Z,72.90
2018-08-11T15:12:39.922Z,72.80
2018-08-11T15:15:10.079Z,72.50
2018-08-11T15:17:39.520Z,72.40
2018-08-11T15:20:09.105Z,72.80
2018-08-11T15:22:38.207Z,72.90
2018-08-11T15:25:07.794Z,73.90
2018-08-11T15:27:36.730Z,74.30
2018-08-11T15:30:07.469Z,73.70
2018-08-11T15:32:36.445Z,73.60
2018-08-11T15:35:06.495Z,73.20
2018-08-11T15:37:35.617Z,71.60
2018-08-11T15:40:05.445Z,71.30
2018-08-11T15:42:35.281Z,69.00
2018-08-11T15:45:08.107Z,69.70
2018-08-11T15:47:38.248Z,69.40
2018-08-11T15:50:07.223Z,67.50
2018-08-11T15:52:36.150Z,69.00
2018-08-11T15:55:05.150Z,69.60
2018-08-11T15:57:39.641Z,69.70
2018-08-11T16:00:10.309Z,72.10
2018-08-11T16:02:39.201Z,71.40
2018-08-11T16:05:08.089Z,70.90
2018-08-11T16:07:36.966Z,70.10
2018-08-11T16:10:06.506Z,67.70
2018-08-11T16:12:35.397Z,69.80
2018-08-11T16:15:04.586Z,69.90
2018-08-11T16:17:33.478Z,70.90
2018-08-11T16:20:02.379Z,68.20
2018-08-11T16:22:31.305Z,67.90
2018-08-11T16:25:02.570Z,68.50
2018-08-11T16:27:33.687Z,69.80
2018-08-11T16:30:03.409Z,71.40
2018-08-11T16:32:32.277Z,74.00
2018-08-11T16:35:01.205Z,72.20
2018-08-11T16:37:30.117Z,71.20
2018-08-11T16:39:59.050Z,70.80
2018-08-11T16:42:27.998Z,70.10
2018-08-11T16:44:56.954Z,70.40
2018-08-11T16:47:28.092Z,74.60
2018-08-11T16:49:57.014Z,68.50
2018-08-11T16:52:25.916Z,70.60
2018-08-11T16:54:54.841Z,71.70
2018-08-11T16:57:23.801Z,73.60
2018-08-11T16:59:52.729Z,70.70
2018-08-11T17:02:21.744Z,71.40
2018-08-11T17:04:51.336Z,73.30
2018-08-11T17:07:20.933Z,74.20
2018-08-11T17:09:49.785Z,72.50
2018-08-11T17:12:18.672Z,75.20
2018-08-11T17:14:47.585Z,73.60
2018-08-11T17:17:17.285Z,74.10
2018-08-11T17:19:46.447Z,73.30
2018-08-11T17:22:20.750Z,75.80
2018-08-11T17:24:49.666Z,69.50
2018-08-11T17:27:19.359Z,75.80
2018-08-11T17:29:48.288Z,72.70
2018-08-11T17:32:17.268Z,71.90
2018-08-11T17:34:46.399Z,77.10
2018-08-11T17:37:15.466Z,74.40
2018-08-11T17:39:44.428Z,74.40
2018-08-11T17:42:14.174Z,77.40
2018-08-11T17:44:43.061Z,77.70
2018-08-11T17:47:11.970Z,75.30
2018-08-11T17:49:40.842Z,77.30
2018-08-11T17:52:09.731Z,73.60
2018-08-11T17:54:38.605Z,75.60
2018-08-11T17:57:09.398Z,72.70
2018-08-11T17:59:39.616Z,73.70
2018-08-11T18:02:10.795Z,78.60
2018-08-11T18:04:41.846Z,75.00
2018-08-11T18:07:11.984Z,77.80
2018-08-11T18:09:50.797Z,78.20
2018-08-11T18:12:29.078Z,80.20
2018-08-11T18:14:59.079Z,81.50
2018-08-11T18:17:28.294Z,83.00
2018-08-11T18:20:06.271Z,83.30
2018-08-11T18:22:41.170Z,81.20
2018-08-11T18:25:10.300Z,82.20
2018-08-11T18:27:39.257Z,88.50
2018-08-11T18:30:09.562Z,90.10
2018-08-11T18:32:38.453Z,89.20
2018-08-11T18:35:08.604Z,88.70
2018-08-11T18:37:38.142Z,88.20
2018-08-11T18:40:07.785Z,89.60
2018-08-11T18:42:38.593Z,89.50
2018-08-11T18:45:08.842Z,89.40
2018-08-11T18:47:37.697Z,91.60
2018-08-11T18:50:06.559Z,90.80
2018-08-11T18:52:35.654Z,90.10
2018-08-11T18:55:07.381Z,90.40
2018-08-11T18:57:36.319Z,91.10
2018-08-11T19:00:10.462Z,92.30
2018-08-11T19:02:39.767Z,90.40
2018-08-11T19:05:08.739Z,90.90
2018-08-11T19:07:38.843Z,91.30
2018-08-11T19:10:09.974Z,91.20
2018-08-11T19:12:39.433Z,91.60
2018-08-11T19:15:10.981Z,93.00
2018-08-11T19:17:40.076Z,93.80
2018-08-11T19:20:11.093Z,94.20
2018-08-11T19:22:40.601Z,95.20
2018-08-11T19:25:10.593Z,93.90
2018-08-11T19:27:40.905Z,94.20
2018-08-11T19:30:11.826Z,94.40
2018-08-11T19:32:42.844Z,96.00
2018-08-11T19:35:13.167Z,96.70
2018-08-11T19:37:42.073Z,95.70
2018-08-11T19:40:11.118Z,96.10
2018-08-11T19:42:40.085Z,97.00
2018-08-11T19:45:10.999Z,95.80
2018-08-11T19:47:40.121Z,96.00
2018-08-11T19:50:15.420Z,96.20
2018-08-11T19:52:44.909Z,96.80
2018-08-11T19:55:13.811Z,98.30
2018-08-11T19:57:42.759Z,99.90
2018-08-11T20:00:14.116Z,99.90
2018-08-11T20:02:43.427Z,99.90
2018-08-11T20:05:13.630Z,99.00
2018-08-11T20:07:44.661Z,99.90
2018-08-11T20:10:18.063Z,99.90
2018-08-11T20:12:48.105Z,99.30
2018-08-11T20:15:19.110Z,99.90
2018-08-11T20:17:48.202Z,99.90
2018-08-11T20:20:17.169Z,99.90
2018-08-11T20:22:46.071Z,99.90
2018-08-11T20:25:17.156Z,99.90
2018-08-11T20:27:46.373Z,99.90
2018-08-11T20:30:15.305Z,99.90
2018-08-11T20:32:45.061Z,99.90
2018-08-11T20:35:13.965Z,99.90
2018-08-11T20:37:42.873Z,99.90
2018-08-11T20:40:11.805Z,99.90
2018-08-11T20:42:40.721Z,99.90
2018-08-11T20:45:10.474Z,99.90
2018-08-11T20:47:39.513Z,99.90
2018-08-11T20:50:09.075Z,99.90
2018-08-11T20:52:38.910Z,99.90
2018-08-11T20:55:09.157Z,99.90
2018-08-11T20:57:38.072Z,99.90
2018-08-11T21:00:09.706Z,99.90
2018-08-11T21:02:38.631Z,99.90
2018-08-11T21:05:10.295Z,99.90
2018-08-11T21:07:39.694Z,99.90
2018-08-11T21:15:05.679Z,99.90
2018-08-11T21:17:34.681Z,99.90
2018-08-11T21:20:04.384Z,99.90
2018-08-11T21:22:34.620Z,99.90
2018-08-11T21:25:04.870Z,99.90
2018-08-11T21:27:34.785Z,99.90
2018-08-11T21:30:05.868Z,99.90
2018-08-11T21:32:36.134Z,99.90
2018-08-11T21:35:06.298Z,99.90
2018-08-11T21:37:35.698Z,99.90
2018-08-11T21:40:06.686Z,99.90
2018-08-11T21:42:36.840Z,99.90
2018-08-11T21:45:10.286Z,99.90
2018-08-11T21:47:40.053Z,99.90
2018-08-11T21:50:09.997Z,99.90
2018-08-11T21:52:40.190Z,99.90
2018-08-11T21:55:09.697Z,99.90
2018-08-11T21:57:39.117Z,99.90
2018-08-11T22:00:36.619Z,99.90
2018-08-11T22:03:09.383Z,99.90
2018-08-11T22:05:38.704Z,99.90
2018-08-11T22:08:07.901Z,99.90
2018-08-11T22:10:37.695Z,99.90
2018-08-11T22:13:06.577Z,99.90
2018-08-11T22:15:35.673Z,99.90
2018-08-11T22:18:05.108Z,99.90
2018-08-11T22:20:35.632Z,99.90
2018-08-11T22:23:06.522Z,99.90
2018-08-11T22:25:36.588Z,99.90
2018-08-11T22:28:06.434Z,99.90
2018-08-11T22:30:35.478Z,99.90
2018-08-11T22:33:06.057Z,99.90
2018-08-11T22:35:44.789Z,99.90
2018-08-11T22:38:13.839Z,99.90
2018-08-11T22:40:42.782Z,99.90
2018-08-11T22:43:11.799Z,99.90
2018-08-11T22:45:40.679Z,99.90
2018-08-11T22:48:09.614Z,99.90
2018-08-11T22:50:38.475Z,99.90
2018-08-11T22:53:07.445Z,99.90
2018-08-11T22:55:36.348Z,99.90
2018-08-11T22:58:05.297Z,99.90
2018-08-11T23:00:34.183Z,99.90
2018-08-11T23:03:03.093Z,99.90
2018-08-11T23:05:32.045Z,99.90
2018-08-11T23:08:00.944Z,99.90
2018-08-11T23:10:29.958Z,99.90
2018-08-11T23:12:58.833Z,99.90
2018-08-11T23:15:27.697Z,99.90
2018-08-11T23:17:57.022Z,99.90
2018-08-11T23:20:25.885Z,99.90
2018-08-11T23:22:54.745Z,99.90
2018-08-11T23:25:23.625Z,99.90
2018-08-11T23:27:52.497Z,99.90
2018-08-11T23:30:21.401Z,99.90
2018-08-11T23:32:50.309Z,99.90
2018-08-11T23:35:19.168Z,99.90
2018-08-11T23:37:48.109Z,99.90
2018-08-11T23:40:17.032Z,99.90
2018-08-11T23:42:45.958Z,99.90
2018-08-11T23:45:16.101Z,99.90
2018-08-11T23:47:44.982Z,99.90
2018-08-11T23:50:14.895Z,99.90
2018-08-11T23:52:44.720Z,99.90
2018-08-11T23:55:14.458Z,99.90
2018-08-11T23:57:43.381Z,99.90
